Time;durP1;ratioP1;P1;durP2;ratioP2;P2;SDS_P1;SDS_P2;PMS_P1;PMS_P2;Temp;Humidity;BMP_temperature;BMP_pressure;BME280_temperature;BME280_humidity;BME280_pressure;Samples;Min_cycle;Max_cycle;Signal;HPM_P1;HPM_P2
2021/12/09 00:01:05;;;;;;;81.23;39.97;;;;;;;-1.79;84.22;94719.97;5098486;28;20205;-68
2021/12/09 00:03:35;;;;;;;90.93;41.03;;;;;;;-1.78;83.35;94729.13;5098380;28;20221;-68
2021/12/09 00:06:04;;;;;;;85.23;38.97;;;;;;;-1.67;83.36;94731.66;5099511;28;20201;-68
2021/12/09 00:08:31;;;;;;;87.60;37.93;;;;;;;-1.56;82.55;94725.13;5098687;28;20229;-68
2021/12/09 00:11:02;;;;;;;88.90;37.97;;;;;;;-1.81;83.24;94714.13;5098228;28;20265;-65
2021/12/09 00:13:30;;;;;;;89.93;38.23;;;;;;;-2.04;83.94;94718.09;5098128;28;21534;-68
2021/12/09 00:16:00;;;;;;;79.43;37.83;;;;;;;-2.02;84.51;94723.91;5098794;28;20192;-68
2021/12/09 00:18:27;;;;;;;88.00;38.77;;;;;;;-2.09;84.85;94723.88;5098703;28;20710;-66
2021/12/09 00:20:55;;;;;;;76.70;35.10;;;;;;;-2.16;85.12;94719.63;5098479;28;20205;-66
2021/12/09 00:23:22;;;;;;;85.67;37.97;;;;;;;-2.33;85.96;94718.66;5098864;28;20258;-68
2021/12/09 00:25:49;;;;;;;74.83;36.73;;;;;;;-2.09;85.25;94716.41;5098125;28;20247;-66
2021/12/09 00:28:16;;;;;;;82.23;39.20;;;;;;;-2.23;85.31;94715.44;5098391;28;20205;-65
2021/12/09 00:30:43;;;;;;;92.97;39.57;;;;;;;-2.61;86.39;94721.66;5098842;28;20205;-66
2021/12/09 00:33:15;;;;;;;87.27;38.43;;;;;;;-3.31;89.40;94710.88;5098150;28;20205;-65
2021/12/09 00:35:46;;;;;;;89.63;40.37;;;;;;;-2.90;90.31;94698.94;5098478;28;20369;-66
2021/12/09 00:38:20;;;;;;;85.57;39.07;;;;;;;-2.52;88.51;94691.94;5098121;28;20197;-66
2021/12/09 00:40:47;;;;;;;79.87;38.60;;;;;;;-2.80;90.00;94690.78;5097302;28;20200;-66
2021/12/09 00:43:15;;;;;;;86.37;40.63;;;;;;;-2.77;90.93;94686.69;5098157;28;20232;-66
2021/12/09 00:45:41;;;;;;;75.80;37.97;;;;;;;-2.50;89.60;94690.28;5098749;28;20197;-67
2021/12/09 00:48:09;;;;;;;80.40;37.67;;;;;;;-2.24;88.08;94693.03;5098307;28;20732;-66
2021/12/09 00:50:37;;;;;;;90.43;40.03;;;;;;;-2.11;87.15;94690.66;5099409;28;20214;-67
2021/12/09 00:53:04;;;;;;;93.77;40.27;;;;;;;-2.17;87.01;94698.06;5100464;28;20667;-66
2021/12/09 00:55:31;;;;;;;94.13;38.57;;;;;;;-1.95;86.19;94695.75;5098424;28;20208;-65
2021/12/09 00:57:58;;;;;;;93.83;38.73;;;;;;;-1.89;85.26;94693.31;5099837;28;20201;-67
2021/12/09 01:00:25;;;;;;;82.73;37.10;;;;;;;-1.98;84.85;94685.78;5100316;28;20201;-66
2021/12/09 01:02:52;;;;;;;86.97;37.57;;;;;;;-2.12;85.25;94681.50;5099853;28;20262;-66
2021/12/09 01:05:18;;;;;;;83.80;38.30;;;;;;;-1.96;85.00;94699.06;5099892;28;20244;-66
2021/12/09 01:07:47;;;;;;;79.57;38.20;;;;;;;-1.96;84.38;94694.91;5099833;28;20629;-66
2021/12/09 01:10:15;;;;;;;90.97;39.37;;;;;;;-2.07;84.15;94692.34;5098858;28;20364;-67
2021/12/09 01:12:42;;;;;;;94.23;39.93;;;;;;;-2.07;84.50;94704.78;5100067;28;20619;-67
2021/12/09 01:15:10;;;;;;;90.13;41.13;;;;;;;-2.07;84.96;94712.25;5100157;28;20208;-66
2021/12/09 01:17:37;;;;;;;92.80;38.93;;;;;;;-1.88;84.15;94700.78;5099445;28;20201;-66
2021/12/09 01:20:06;;;;;;;92.67;41.10;;;;;;;-2.25;85.36;94702.16;5097180;28;22497;-67
2021/12/09 01:22:38;;;;;;;101.67;42.60;;;;;;;-2.11;85.53;94695.63;5097924;28;20273;-66
2021/12/09 01:25:09;;;;;;;87.13;39.53;;;;;;;-2.18;85.23;94693.91;5097219;28;20794;-66
2021/12/09 01:27:38;;;;;;;95.63;42.30;;;;;;;-2.16;85.63;94696.41;5098278;28;20264;-67
2021/12/09 01:30:10;;;;;;;86.37;41.90;;;;;;;-2.24;86.42;94700.50;5096171;28;20197;-66
2021/12/09 01:32:37;;;;;;;97.47;42.07;;;;;;;-2.12;85.50;94698.94;5097972;28;20201;-67
2021/12/09 01:35:05;;;;;;;91.30;41.70;;;;;;;-2.17;85.69;94700.53;5095507;28;20274;-66
2021/12/09 01:37:33;;;;;;;98.60;43.40;;;;;;;-2.19;85.54;94691.38;5097695;28;20268;-67
2021/12/09 01:40:01;;;;;;;109.27;43.83;;;;;;;-2.10;85.49;94701.44;5097226;28;20719;-66
2021/12/09 01:42:29;;;;;;;104.30;43.77;;;;;;;-2.28;85.43;94704.59;5097328;28;20211;-67
2021/12/09 01:44:56;;;;;;;107.07;41.93;;;;;;;-2.36;85.92;94698.72;5096224;28;20228;-67
2021/12/09 01:47:23;;;;;;;91.53;42.63;;;;;;;-2.50;85.32;94685.31;5096953;28;20224;-67
2021/12/09 01:49:50;;;;;;;94.03;41.67;;;;;;;-2.56;85.74;94692.72;5097236;28;20197;-67
2021/12/09 01:52:17;;;;;;;103.47;43.37;;;;;;;-2.46;85.60;94687.00;5098955;28;20980;-67
2021/12/09 01:54:43;;;;;;;102.57;42.37;;;;;;;-2.20;84.48;94688.06;5098192;28;20671;-66
2021/12/09 01:57:11;;;;;;;89.33;38.50;;;;;;;-2.01;84.03;94690.75;5098464;28;20513;-66
2021/12/09 01:59:39;;;;;;;83.70;39.87;;;;;;;-2.02;83.88;94689.91;5099943;28;20205;-66
2021/12/09 02:02:06;;;;;;;95.17;40.43;;;;;;;-2.17;84.95;94685.59;5098520;28;20676;-66
2021/12/09 02:04:32;;;;;;;102.37;43.13;;;;;;;-2.20;85.55;94685.56;5098105;28;20258;-66
2021/12/09 02:06:59;;;;;;;93.30;39.97;;;;;;;-2.08;85.57;94688.19;5099842;28;20193;-66
2021/12/09 02:09:26;;;;;;;91.10;41.47;;;;;;;-2.24;85.47;94683.91;5103070;28;20209;-66
2021/12/09 02:11:53;;;;;;;77.40;38.67;;;;;;;-2.37;86.10;94687.09;5102755;28;20250;-67
2021/12/09 02:14:20;;;;;;;99.30;41.50;;;;;;;-2.48;87.13;94682.03;5102839;27;20197;-67
2021/12/09 02:16:48;;;;;;;98.83;42.03;;;;;;;-2.20;86.98;94690.56;5101966;28;20261;-67
2021/12/09 02:19:15;;;;;;;83.63;39.13;;;;;;;-1.93;86.22;94691.63;5102549;28;20196;-66
2021/12/09 02:21:43;;;;;;;87.60;38.27;;;;;;;-1.94;85.80;94702.41;5102158;28;20772;-66
2021/12/09 02:24:15;;;;;;;84.23;38.57;;;;;;;-2.10;86.25;94701.44;5103181;28;20233;-65
2021/12/09 02:26:46;;;;;;;85.87;39.80;;;;;;;-2.57;87.43;94701.00;5099506;28;20299;-66
2021/12/09 02:29:15;;;;;;;96.60;40.40;;;;;;;-2.46;88.14;94706.88;5100613;28;20643;-67
2021/12/09 02:31:44;;;;;;;89.90;39.03;;;;;;;-2.57;88.93;94713.44;5099970;28;20300;-66
2021/12/09 02:34:12;;;;;;;92.03;39.60;;;;;;;-2.41;88.50;94710.28;5099691;28;20197;-66
2021/12/09 02:36:42;;;;;;;101.90;40.43;;;;;;;-2.40;87.40;94707.78;5099604;28;20193;-67
2021/12/09 02:39:12;;;;;;;92.20;39.07;;;;;;;-2.26;86.88;94712.09;5100719;28;20316;-67
2021/12/09 02:41:40;;;;;;;85.07;39.43;;;;;;;-2.18;86.71;94698.88;5098704;28;20664;-67
2021/12/09 02:44:10;;;;;;;93.13;37.50;;;;;;;-2.19;86.48;94689.75;5100032;28;20294;-68
2021/12/09 02:46:38;;;;;;;75.23;37.50;;;;;;;-2.17;87.01;94674.81;5100987;28;20708;-66
2021/12/09 02:49:08;;;;;;;92.27;37.83;;;;;;;-2.21;87.29;94688.88;5100586;28;20593;-67
2021/12/09 02:51:37;;;;;;;96.70;37.90;;;;;;;-2.20;87.61;94688.06;5100602;28;20197;-66
2021/12/09 02:54:04;;;;;;;87.83;39.53;;;;;;;-2.65;89.73;94695.94;5100702;28;20197;-67
2021/12/09 02:56:33;;;;;;;92.53;38.43;;;;;;;-2.65;91.21;94690.13;5101341;28;20667;-67
2021/12/09 02:58:59;;;;;;;83.53;38.20;;;;;;;-2.26;90.38;94685.56;5102390;28;20254;-67
2021/12/09 03:01:29;;;;;;;97.70;39.57;;;;;;;-2.02;89.31;94686.56;5102789;28;20201;-66
2021/12/09 03:04:00;;;;;;;89.03;38.20;;;;;;;-1.96;88.40;94691.59;5102051;28;20225;-66
2021/12/09 03:06:31;;;;;;;81.63;36.20;;;;;;;-1.94;86.89;94692.44;5101720;28;20449;-67
2021/12/09 03:09:02;;;;;;;75.00;32.90;;;;;;;-1.95;87.55;94693.25;5100914;28;20300;-67
2021/12/09 03:11:29;;;;;;;72.77;32.40;;;;;;;-1.98;87.66;94700.72;5101252;28;20197;-67
2021/12/09 03:13:57;;;;;;;80.37;36.00;;;;;;;-2.25;88.38;94687.22;5101222;28;20193;-67
2021/12/09 03:16:25;;;;;;;75.10;35.17;;;;;;;-2.17;89.28;94690.59;5100487;28;20212;-66
2021/12/09 03:18:56;;;;;;;77.80;34.60;;;;;;;-2.06;88.70;94688.19;5099899;28;20193;-67
2021/12/09 03:21:26;;;;;;;78.60;36.03;;;;;;;-2.14;89.04;94692.28;5100722;28;20201;-67
2021/12/09 03:23:54;;;;;;;89.73;38.77;;;;;;;-1.87;88.20;94696.66;5100680;28;20208;-67
2021/12/09 03:26:26;;;;;;;87.90;38.70;;;;;;;-1.96;87.97;94699.06;5101052;28;20193;-67
2021/12/09 03:28:53;;;;;;;80.57;37.80;;;;;;;-1.87;88.01;94704.94;5102072;28;20211;-67
2021/12/09 03:31:21;;;;;;;92.57;39.03;;;;;;;-2.03;88.85;94698.19;5098874;28;20189;-68
2021/12/09 03:33:48;;;;;;;84.90;38.17;;;;;;;-1.92;89.18;94696.59;5099963;28;20201;-67
2021/12/09 03:36:15;;;;;;;90.03;40.20;;;;;;;-1.77;88.09;94691.75;5100823;28;20197;-66
2021/12/09 03:38:42;;;;;;;85.83;35.97;;;;;;;-1.72;88.03;94689.28;5100280;28;20220;-66
2021/12/09 03:41:10;;;;;;;89.50;38.33;;;;;;;-1.60;87.52;94691.88;5100381;28;20292;-66
2021/12/09 03:43:37;;;;;;;94.67;39.87;;;;;;;-1.61;87.34;94687.72;5100097;28;20254;-67
2021/12/09 03:46:04;;;;;;;95.40;38.03;;;;;;;-1.65;87.84;94682.69;5099806;28;20229;-67
2021/12/09 03:48:32;;;;;;;94.40;39.83;;;;;;;-1.58;87.84;94676.94;5099812;28;20305;-66
2021/12/09 03:50:59;;;;;;;80.87;38.70;;;;;;;-1.43;87.63;94677.84;5100268;28;20278;-67
2021/12/09 03:53:26;;;;;;;89.33;39.23;;;;;;;-1.64;87.80;94676.88;5100410;28;20246;-67
2021/12/09 03:55:53;;;;;;;92.03;38.27;;;;;;;-1.57;88.19;94689.41;5099820;28;20200;-67
2021/12/09 03:58:20;;;;;;;83.87;38.90;;;;;;;-1.64;88.83;94697.66;5099552;28;20246;-66
2021/12/09 04:00:49;;;;;;;98.23;41.00;;;;;;;-1.56;88.99;94705.19;5100740;28;20197;-67
2021/12/09 04:03:18;;;;;;;95.47;37.30;;;;;;;-1.42;88.20;94711.91;5101588;28;20296;-67
2021/12/09 04:05:47;;;;;;;88.63;38.30;;;;;;;-1.79;89.37;94707.50;5101684;28;20209;-66
2021/12/09 04:08:14;;;;;;;83.97;39.10;;;;;;;-1.72;89.68;94686.78;5101384;28;20193;-66
2021/12/09 04:10:42;;;;;;;92.13;41.10;;;;;;;-1.76;89.30;94705.88;5101620;28;20225;-67
2021/12/09 04:13:08;;;;;;;86.37;37.87;;;;;;;-1.70;89.60;94697.59;5101836;28;20674;-66
2021/12/09 04:15:35;;;;;;;78.27;38.23;;;;;;;-1.45;89.13;94703.59;5101215;28;20257;-66
2021/12/09 04:18:03;;;;;;;82.30;38.33;;;;;;;-1.53;88.83;94708.53;5101388;28;20254;-66
2021/12/09 04:20:30;;;;;;;84.80;39.83;;;;;;;-1.55;88.91;94702.72;5101408;28;20908;-66
2021/12/09 04:22:59;;;;;;;81.97;38.17;;;;;;;-1.52;89.09;94705.22;5101318;28;20227;-66
2021/12/09 04:25:26;;;;;;;83.93;37.70;;;;;;;-1.57;89.11;94711.81;5101700;28;20255;-66
2021/12/09 04:27:55;;;;;;;82.63;38.00;;;;;;;-1.45;89.27;94704.41;5100160;28;20753;-66
2021/12/09 04:30:32;;;;;;;85.77;39.40;;;;;;;-1.61;89.39;94704.31;5100829;28;20208;-67
2021/12/09 04:32:59;;;;;;;89.03;39.23;;;;;;;-1.58;89.91;94705.19;5098080;28;20752;-66
2021/12/09 04:35:26;;;;;;;91.90;38.90;;;;;;;-1.63;90.36;94698.50;5098986;28;20197;-66
2021/12/09 04:37:52;;;;;;;90.77;39.80;;;;;;;-1.59;90.63;94700.19;5099071;28;20257;-67
2021/12/09 04:40:21;;;;;;;79.73;39.13;;;;;;;-1.67;91.09;94722.53;5098597;28;20249;-67
2021/12/09 04:42:47;;;;;;;76.50;39.27;;;;;;;-1.57;91.12;94713.47;5098474;28;20201;-67
2021/12/09 04:45:14;;;;;;;76.47;38.40;;;;;;;-1.42;90.76;94709.44;5098647;28;20224;-66
2021/12/09 04:47:42;;;;;;;86.60;39.93;;;;;;;-1.18;89.82;94722.84;5099053;28;20569;-67
2021/12/09 04:50:10;;;;;;;77.97;36.40;;;;;;;-1.09;89.52;94722.91;5098638;28;20250;-66
2021/12/09 04:52:37;;;;;;;97.87;41.30;;;;;;;-1.07;89.04;94722.09;5099158;28;20251;-66
2021/12/09 04:55:05;;;;;;;114.20;48.07;;;;;;;-1.04;89.19;94718.81;5098375;28;20193;-67
2021/12/09 04:57:33;;;;;;;97.90;42.97;;;;;;;-1.10;89.07;94731.22;5098903;28;20213;-66
2021/12/09 05:00:00;;;;;;;88.27;39.77;;;;;;;-1.07;89.39;94736.25;5098696;28;20209;-66
2021/12/09 05:02:36;;;;;;;83.10;36.10;;;;;;;-0.87;89.09;94717.22;5099029;28;20291;-65
2021/12/09 05:05:04;;;;;;;76.73;35.73;;;;;;;-0.98;89.42;94716.31;5100508;28;20224;-66
2021/12/09 05:07:31;;;;;;;86.23;37.53;;;;;;;-1.16;90.08;94721.22;5100093;28;20264;-66
2021/12/09 05:09:58;;;;;;;79.53;38.63;;;;;;;-0.95;89.90;94716.31;5100782;28;20221;-66
2021/12/09 05:12:24;;;;;;;82.40;37.00;;;;;;;-1.08;90.22;94730.41;5100441;28;20192;-66
2021/12/09 05:14:53;;;;;;;82.53;37.00;;;;;;;-1.10;90.54;94727.06;5100712;28;20205;-66
2021/12/09 05:17:19;;;;;;;84.67;38.13;;;;;;;-1.17;91.23;94719.53;5099075;28;20855;-67
2021/12/09 05:19:48;;;;;;;83.17;38.73;;;;;;;-0.93;90.63;94734.63;5098205;28;20273;-67
2021/12/09 05:22:18;;;;;;;78.43;37.13;;;;;;;-1.11;89.72;94735.38;5098129;28;20228;-69
2021/12/09 05:24:48;;;;;;;94.87;45.13;;;;;;;-1.27;91.56;94737.78;5098642;28;20229;-66
2021/12/09 05:27:16;;;;;;;84.60;38.80;;;;;;;-1.20;91.05;94734.47;5098400;28;20241;-67
2021/12/09 05:29:44;;;;;;;71.90;38.10;;;;;;;-1.52;92.74;94727.66;5098384;28;20196;-66
2021/12/09 05:32:13;;;;;;;71.87;35.97;;;;;;;-1.17;93.75;94727.84;5099861;28;20201;-66
2021/12/09 05:34:42;;;;;;;79.33;39.00;;;;;;;-1.17;93.39;94729.50;5100291;28;20203;-67
2021/12/09 05:37:12;;;;;;;73.43;36.87;;;;;;;-1.12;93.40;94727.88;5100469;28;20197;-66
2021/12/09 05:39:39;;;;;;;82.33;37.00;;;;;;;-1.35;93.16;94719.44;5096590;28;20328;-67
2021/12/09 05:42:06;;;;;;;73.67;35.90;;;;;;;-0.97;93.37;94730.44;5099556;28;20690;-66
2021/12/09 05:44:34;;;;;;;78.23;36.40;;;;;;;-0.79;93.42;94727.22;5101979;28;20664;-67
2021/12/09 05:47:02;;;;;;;82.13;35.90;;;;;;;-0.79;92.75;94738.03;5102298;28;20287;-67
2021/12/09 05:49:31;;;;;;;74.93;36.47;;;;;;;-0.69;92.34;94726.41;5102069;28;20246;-67
2021/12/09 05:51:57;;;;;;;83.57;35.93;;;;;;;-0.83;92.08;94731.38;5102304;28;20250;-66
2021/12/09 05:54:24;;;;;;;72.23;36.70;;;;;;;-1.12;91.83;94727.88;5102055;28;20659;-66
2021/12/09 05:56:51;;;;;;;74.60;35.50;;;;;;;-1.07;92.64;94742.06;5101998;28;20621;-66
2021/12/09 05:59:18;;;;;;;78.47;36.73;;;;;;;-1.09;93.17;94752.84;5102677;28;20204;-66
2021/12/09 06:01:45;;;;;;;87.07;36.07;;;;;;;-0.99;92.58;94749.56;5101616;28;20209;-67
2021/12/09 06:04:12;;;;;;;75.07;34.57;;;;;;;-1.05;92.49;94744.56;5101977;28;20258;-66
2021/12/09 06:06:41;;;;;;;70.93;36.27;;;;;;;-0.94;91.83;94737.94;5102500;28;20263;-67
2021/12/09 06:09:10;;;;;;;74.80;35.37;;;;;;;-0.85;91.38;94735.50;5102842;28;20205;-66
2021/12/09 06:11:38;;;;;;;71.00;34.97;;;;;;;-0.82;91.03;94737.19;5103540;28;20216;-66
2021/12/09 06:14:06;;;;;;;77.60;34.20;;;;;;;-0.80;90.81;94746.34;5103711;28;20324;-66
2021/12/09 06:16:33;;;;;;;66.93;33.53;;;;;;;-0.98;91.43;94745.41;5103889;28;20209;-67
2021/12/09 06:19:01;;;;;;;70.07;32.57;;;;;;;-0.96;92.24;94741.25;5104141;28;20197;-69
2021/12/09 06:21:28;;;;;;;75.13;36.87;;;;;;;-0.96;92.22;94749.56;5104322;28;20661;-66
2021/12/09 06:23:57;;;;;;;80.40;35.13;;;;;;;-1.07;92.39;94749.53;5103736;28;20197;-67
2021/12/09 06:26:24;;;;;;;62.50;32.40;;;;;;;-0.96;91.97;94749.56;5103239;28;20228;-67
2021/12/09 06:28:51;;;;;;;85.03;38.37;;;;;;;-1.24;92.90;94752.75;5103592;28;20286;-67
2021/12/09 06:31:18;;;;;;;74.73;35.57;;;;;;;-1.20;93.32;94755.25;5103760;28;20612;-66
2021/12/09 06:33:44;;;;;;;82.80;37.80;;;;;;;-0.98;93.40;94751.22;5103360;28;20258;-66
2021/12/09 06:36:11;;;;;;;66.33;34.07;;;;;;;-0.92;92.25;94753.75;5103028;28;20242;-66
2021/12/09 06:38:39;;;;;;;65.03;33.63;;;;;;;-1.06;92.19;94766.16;5102990;27;20221;-68
2021/12/09 06:41:09;;;;;;;70.87;34.53;;;;;;;-1.19;92.77;94761.06;5103226;28;20197;-66
2021/12/09 06:43:37;;;;;;;79.17;36.80;;;;;;;-1.02;92.80;94754.56;5103437;28;20572;-66
2021/12/09 06:46:06;;;;;;;74.53;34.43;;;;;;;-0.79;92.01;94748.03;5100135;28;20789;-68
2021/12/09 06:48:33;;;;;;;83.53;37.47;;;;;;;-0.72;91.13;94751.34;5101224;28;20201;-68
2021/12/09 06:51:01;;;;;;;74.97;35.40;;;;;;;-0.87;90.86;94744.66;5100928;28;20289;-69
2021/12/09 06:53:28;;;;;;;81.30;37.47;;;;;;;-0.94;91.27;94744.59;5099896;28;20193;-68
2021/12/09 06:55:55;;;;;;;89.83;41.03;;;;;;;-0.87;91.66;94737.16;5100970;28;20705;-68
2021/12/09 06:58:23;;;;;;;93.57;41.33;;;;;;;-1.02;91.37;94754.56;5100846;28;20361;-68
2021/12/09 07:00:51;;;;;;;98.63;44.43;;;;;;;-1.07;91.56;94747.03;5100949;28;20205;-66
2021/12/09 07:03:20;;;;;;;98.47;41.77;;;;;;;-1.10;92.56;94747.03;5100724;28;20201;-68
2021/12/09 07:05:48;;;;;;;93.07;44.17;;;;;;;-0.99;93.85;94754.53;5101108;28;20609;-67
2021/12/09 07:08:16;;;;;;;100.90;45.17;;;;;;;-0.94;92.35;94742.94;5100815;28;20612;-67
2021/12/09 07:10:43;;;;;;;101.20;44.23;;;;;;;-0.87;92.22;94744.66;5100438;28;20209;-67
2021/12/09 07:13:10;;;;;;;107.77;45.13;;;;;;;-0.68;91.15;94741.41;5101152;28;20212;-67
2021/12/09 07:15:39;;;;;;;89.97;41.50;;;;;;;-0.50;90.17;94740.66;5101017;28;20290;-67
2021/12/09 07:18:06;;;;;;;93.80;41.23;;;;;;;-0.65;89.97;94737.25;5100871;28;20625;-69
2021/12/09 07:20:34;;;;;;;92.57;39.03;;;;;;;-0.73;90.95;94730.56;5102757;28;20225;-67
2021/12/09 07:23:01;;;;;;;101.13;41.37;;;;;;;-0.77;91.53;94750.53;5102162;28;20644;-67
2021/12/09 07:25:30;;;;;;;90.37;39.80;;;;;;;-0.72;91.93;94738.88;5102573;28;20233;-67
2021/12/09 07:27:57;;;;;;;76.27;36.20;;;;;;;-0.33;91.09;94737.38;5102887;28;20636;-66
2021/12/09 07:30:26;;;;;;;88.67;37.03;;;;;;;-0.45;89.53;94733.16;5103000;28;20200;-68
2021/12/09 07:32:54;;;;;;;87.30;36.23;;;;;;;-0.74;91.26;94731.38;5102391;27;20193;-66
2021/12/09 07:35:23;;;;;;;89.73;37.87;;;;;;;-0.95;92.45;94710.50;5102030;28;20894;-66
2021/12/09 07:37:50;;;;;;;89.23;37.07;;;;;;;-0.78;91.83;94734.72;5102240;28;21340;-67
2021/12/09 07:40:18;;;;;;;86.87;35.80;;;;;;;-0.53;91.79;94732.31;5102122;28;20648;-66
2021/12/09 07:42:45;;;;;;;93.50;38.90;;;;;;;-0.28;92.84;94720.75;5101235;28;20201;-68
2021/12/09 07:45:13;;;;;;;86.10;35.00;;;;;;;0.10;90.53;94728.28;5102062;28;21144;-66
2021/12/09 07:47:43;;;;;;;74.80;35.47;;;;;;;0.22;90.63;94740.81;5102190;28;20205;-68
2021/12/09 07:50:14;;;;;;;79.70;36.97;;;;;;;0.32;90.15;94747.47;5102102;28;20207;-65
2021/12/09 07:52:42;;;;;;;85.00;35.60;;;;;;;0.53;89.47;94734.13;5097899;28;20209;-66
2021/12/09 07:55:10;;;;;;;80.97;35.13;;;;;;;0.65;87.63;94724.97;5100012;28;20667;-66
2021/12/09 07:57:36;;;;;;;82.97;36.27;;;;;;;0.38;88.73;94724.97;5099886;28;20211;-67
2021/12/09 08:00:06;;;;;;;87.53;35.50;;;;;;;0.32;88.45;94723.28;5099768;28;20205;-67
2021/12/09 08:02:33;;;;;;;86.70;34.67;;;;;;;0.36;89.52;94721.63;5099628;28;20329;-67
2021/12/09 08:05:00;;;;;;;77.10;34.67;;;;;;;0.22;88.40;94713.31;5099326;28;20254;-67
2021/12/09 08:07:28;;;;;;;75.20;32.10;;;;;;;0.16;89.74;94723.31;5100087;28;20718;-67
2021/12/09 08:09:55;;;;;;;76.97;33.73;;;;;;;0.36;89.21;94710.81;5099679;28;20217;-67
2021/12/09 08:12:22;;;;;;;73.80;34.53;;;;;;;0.31;89.18;94719.13;5099066;28;20200;-67
2021/12/09 08:14:49;;;;;;;74.77;31.93;;;;;;;0.20;88.85;94735.81;5099828;28;20276;-67
2021/12/09 08:17:44;;;;;;;66.87;31.53;;;;;;;0.26;88.44;94719.97;5099915;28;20193;-68
2021/12/09 08:20:12;;;;;;;81.37;33.97;;;;;;;0.16;88.42;94726.63;5099434;28;20208;-67
2021/12/09 08:22:42;;;;;;;70.73;30.67;;;;;;;0.18;89.73;94699.97;5100344;28;20205;-66
2021/12/09 08:25:10;;;;;;;71.37;32.50;;;;;;;0.25;89.00;94714.13;5101560;28;20614;-66
2021/12/09 08:27:37;;;;;;;67.10;31.00;;;;;;;0.34;88.61;94728.28;5100411;28;20278;-67
2021/12/09 08:30:06;;;;;;;72.17;30.60;;;;;;;0.58;88.78;94738.28;5099382;28;20282;-67
2021/12/09 08:32:33;;;;;;;80.67;34.90;;;;;;;0.56;88.75;94726.63;5099339;28;20672;-67
2021/12/09 08:35:00;;;;;;;77.90;33.00;;;;;;;0.23;88.46;94719.97;5098842;28;20636;-66
2021/12/09 08:37:29;;;;;;;69.03;31.23;;;;;;;0.52;87.54;94719.94;5099541;28;20266;-67
2021/12/09 08:39:57;;;;;;;76.90;32.73;;;;;;;0.42;87.25;94710.81;5099379;28;20688;-66
2021/12/09 08:42:25;;;;;;;61.70;29.30;;;;;;;0.86;85.75;94710.75;5098441;28;20200;-66
2021/12/09 08:44:55;;;;;;;72.03;32.53;;;;;;;1.01;85.58;94708.19;5100596;28;20228;-66
2021/12/09 08:47:22;;;;;;;83.50;33.23;;;;;;;0.91;85.48;94706.56;5100844;28;20228;-66
2021/12/09 08:49:49;;;;;;;74.37;34.33;;;;;;;1.02;85.82;94709.84;5100884;28;20204;-67
2021/12/09 08:52:16;;;;;;;74.67;31.90;;;;;;;1.12;84.38;94703.16;5100980;28;20197;-67
2021/12/09 08:54:43;;;;;;;76.43;33.57;;;;;;;1.04;85.92;94690.69;5097687;28;20269;-68
2021/12/09 08:57:12;;;;;;;73.83;31.97;;;;;;;0.78;86.41;94693.25;5099063;28;20201;-69
2021/12/09 08:59:39;;;;;;;71.33;32.70;;;;;;;0.65;86.58;94702.44;5098629;28;20280;-67
2021/12/09 09:02:05;;;;;;;81.30;33.97;;;;;;;0.60;86.77;94685.78;5098853;28;20265;-67
2021/12/09 09:04:32;;;;;;;81.97;34.70;;;;;;;0.59;86.90;94699.94;5100241;28;20204;-67
2021/12/09 09:07:01;;;;;;;76.83;34.13;;;;;;;0.37;89.08;94685.81;5099689;28;20772;-68
2021/12/09 09:09:33;;;;;;;84.13;36.17;;;;;;;0.63;87.50;94655.78;5099970;28;20209;-68
2021/12/09 09:12:00;;;;;;;82.83;34.50;;;;;;;1.00;87.34;94689.00;5101024;28;20192;-67
2021/12/09 09:14:28;;;;;;;79.70;35.33;;;;;;;1.00;86.04;94691.50;5101197;28;20205;-69
2021/12/09 09:16:56;;;;;;;84.77;34.60;;;;;;;0.76;87.21;94664.06;5098587;28;20737;-67
2021/12/09 09:19:23;;;;;;;78.03;35.50;;;;;;;1.02;86.44;94674.84;5098827;28;20220;-66
2021/12/09 09:21:50;;;;;;;77.03;36.83;;;;;;;1.09;85.36;94646.47;5098170;28;20207;-68
2021/12/09 09:24:17;;;;;;;88.77;38.07;;;;;;;1.14;86.63;94648.94;5098695;28;20208;-66
2021/12/09 09:26:44;;;;;;;89.40;39.77;;;;;;;1.22;86.41;94623.06;5098451;28;20297;-66
2021/12/09 09:29:11;;;;;;;90.83;37.93;;;;;;;1.23;86.49;94674.78;5099079;28;20196;-67
2021/12/09 09:31:40;;;;;;;83.47;35.43;;;;;;;1.50;85.64;94643.75;5099508;28;20181;-67
2021/12/09 09:34:08;;;;;;;87.27;35.57;;;;;;;1.80;85.84;94652.75;5099977;28;20189;-67
2021/12/09 09:36:39;;;;;;;84.30;34.33;;;;;;;1.84;84.21;94648.56;5096743;28;20301;-67
2021/12/09 09:39:17;;;;;;;86.10;36.93;;;;;;;2.02;84.02;94649.25;5097740;28;20243;-66
2021/12/09 09:41:45;;;;;;;85.77;35.60;;;;;;;2.43;84.05;94648.09;5098148;28;20491;-66
2021/12/09 09:44:15;;;;;;;80.87;36.03;;;;;;;3.06;80.97;94623.16;5098700;28;20204;-66
2021/12/09 09:46:44;;;;;;;78.40;35.80;;;;;;;3.40;77.67;94629.44;5098149;28;20232;-67
2021/12/09 09:49:12;;;;;;;83.17;35.90;;;;;;;3.27;77.47;94625.41;5098555;28;20193;-67
2021/12/09 09:51:41;;;;;;;79.10;36.73;;;;;;;3.34;78.14;94629.50;5098188;28;20201;-66
2021/12/09 09:54:10;;;;;;;94.00;39.03;;;;;;;3.61;77.63;94614.94;5098202;28;20268;-66
2021/12/09 09:56:41;;;;;;;86.43;37.67;;;;;;;3.44;76.89;94614.34;5098216;28;20218;-66
2021/12/09 09:59:12;;;;;;;93.13;39.80;;;;;;;3.24;78.35;94612.06;5098091;28;20208;-67
2021/12/09 10:01:41;;;;;;;98.20;42.60;;;;;;;2.94;78.55;94595.72;5098108;28;20196;-66
2021/12/09 10:04:14;;;;;;;90.67;42.97;;;;;;;3.13;78.07;94586.28;5097782;28;20668;-67
2021/12/09 10:06:44;;;;;;;115.75;46.72;;;;;;;3.08;79.01;94606.41;5099153;28;20217;-68
2021/12/09 10:09:12;;;;;;;92.20;41.13;;;;;;;2.85;79.83;94584.09;5100042;28;20611;-69
2021/12/09 10:11:40;;;;;;;104.03;45.67;;;;;;;2.65;79.62;94601.88;5099990;28;20546;-68
2021/12/09 10:14:13;;;;;;;103.00;42.53;;;;;;;2.76;80.60;94608.44;5100125;28;20272;-69
2021/12/09 10:16:41;;;;;;;112.78;46.53;;;;;;;2.58;79.94;94555.13;5100202;28;20201;-68
2021/12/09 10:19:22;;;;;;;113.33;46.10;;;;;;;2.89;79.52;94585.72;5098431;28;20735;-68
2021/12/09 10:21:49;;;;;;;95.57;43.57;;;;;;;2.96;78.97;94587.31;5098115;28;20208;-68
2021/12/09 10:24:17;;;;;;;92.47;45.03;;;;;;;2.84;79.54;94594.16;5098058;28;20205;-69
2021/12/09 10:26:45;;;;;;;111.73;45.33;;;;;;;2.86;79.38;94575.72;5098081;28;20224;-67
2021/12/09 10:29:17;;;;;;;115.95;44.30;;;;;;;3.17;79.00;94576.19;5101350;28;20209;-69
2021/12/09 10:31:48;;;;;;;107.00;44.30;;;;;;;3.06;78.72;94578.81;5101811;28;20205;-67
2021/12/09 10:34:36;;;;;;;98.73;44.47;;;;;;;3.25;78.37;94579.41;5101532;28;20287;-68
2021/12/09 10:37:10;;;;;;;107.10;45.03;;;;;;;2.84;79.41;94586.63;5101768;28;20212;-68
2021/12/09 10:39:45;;;;;;;114.47;47.00;;;;;;;2.70;80.81;94567.56;5101556;28;20232;-67
2021/12/09 10:42:16;;;;;;;98.38;43.30;;;;;;;3.06;79.43;94552.88;5101382;28;20625;-68
2021/12/09 10:44:55;;;;;;;113.43;43.57;;;;;;;3.29;78.35;94562.63;5100236;28;20206;-67
2021/12/09 10:47:46;;;;;;;99.60;42.13;;;;;;;3.03;79.73;94537.84;5100715;28;20237;-67
2021/12/09 10:50:26;;;;;;;104.37;44.73;;;;;;;3.02;79.72;94561.28;5101195;28;20220;-67
2021/12/09 10:52:58;;;;;;;115.73;46.97;;;;;;;3.24;80.66;94557.66;5100933;28;20201;-70
2021/12/09 10:55:31;;;;;;;132.27;52.70;;;;;;;3.22;80.65;94554.31;5100889;28;20212;-69
2021/12/09 10:58:02;;;;;;;121.65;48.53;;;;;;;3.17;80.53;94525.97;5101568;28;20197;-67
2021/12/09 11:00:44;;;;;;;120.37;50.40;;;;;;;3.05;81.91;94571.28;5100734;28;20691;-68
2021/12/09 11:03:18;;;;;;;123.37;53.23;;;;;;;3.29;80.85;94543.34;5099856;28;20205;-68
2021/12/09 11:05:53;;;;;;;124.47;54.27;;;;;;;3.28;80.32;94541.69;5101258;28;20193;-68
2021/12/09 11:08:41;;;;;;;127.30;51.43;;;;;;;3.28;78.89;94536.66;5100947;28;20301;-68
2021/12/09 11:11:14;;;;;;;99.03;46.37;;;;;;;3.48;78.04;94530.53;5100636;28;20269;-67
2021/12/09 11:13:48;;;;;;;109.90;49.10;;;;;;;3.72;78.00;94535.16;5100520;28;20201;-68
2021/12/09 11:16:23;;;;;;;110.90;46.53;;;;;;;3.56;77.87;94544.63;5101340;28;20212;-68
2021/12/09 11:18:52;;;;;;;102.23;46.80;;;;;;;3.42;78.39;94537.31;5100815;28;20274;-68
2021/12/09 11:21:25;;;;;;;103.07;47.03;;;;;;;3.49;78.42;94542.22;5101268;28;20201;-69
2021/12/09 11:23:59;;;;;;;112.23;48.03;;;;;;;3.52;78.51;94532.13;5100276;28;20208;-69
2021/12/09 11:26:54;;;;;;;103.30;44.97;;;;;;;3.45;79.50;94518.88;5100691;28;20201;-68